x

South Santa Rosa Is. Ca (46069) Wave Buoy

4:50 - Mon 27th Mar 2017 All times are PDT. -7 hours from GMT.

  • Sig Wave height 9.8ft
  • Swell Direction
  • Peak Period 8s
  • Average Period 6s
  • Wind
    34mph, 40mph gusts
  • Sea Temp 57°f
  • Ar Temp 56°f
  • Sea Pressure 1018mb
  • South Santa Rosa Is. Ca
  • South Santa Rosa Is. Ca

More Historic Weather Station data

Upgrade to MSW Pro to gain access to the past 30 days of data for over 8000 Wavebouys and Weather Stations around the globe.

Join Pro

Comparision Forecast

View Surf forecast
   
Seg 03/27 4:50 10ft 8s 6s 34 40 mph 1018mb 57f 56f
3:50 9.5ft 7s 6s 36 40 mph 1018mb 57f 56f
2:50 8.5ft 8s 6s 34 40 mph 1018.5mb 57f 56f
1:50 8ft 7s 6s 31 36 mph 1018.6mb 57f 56f
12:50 8ft 7s 6s 29 34 mph 1018.6mb 57f 56f
11:50 9ft 7s 6s 27 34 mph 1019.1mb 57f 56f
10:50 8ft 6s 6s 29 36 mph 1019.1mb 57f 56f
9:50 7.5ft 6s 6s 29 36 mph 1018.8mb 57f 56f
8:50 7ft 12s 6s 31 40 mph 1018.9mb 57f 56f
7:50 6ft 11s 6s 29 36 mph 1018.7mb 57f 56f
6:50 6ft 11s 6s 20 25 mph 1017.9mb 57f 56f
5:50 6ft 11s 7s 25 29 mph 1017.3mb 57f 56f
4:50 6ft 11s 7s 18 22 mph 1017.7mb 57f 56f
3:50 6ft 13s 7s 18 22 mph 1017.7mb 57f 56f
2:50 6.5ft 12s 7s 20 22 mph 1018.2mb 57f 57f
1:50 6.5ft 12s 6s 20 25 mph 1018.4mb 57f 57f
12:50 6.5ft 13s 6s 20 22 mph 1018.5mb 57f 57f
Dom 03/26 11:50 7ft 13s 6s 22 27 mph 1018.3mb 57f 56f
10:50 7ft 11s 6s 20 27 mph 1018.5mb 57f 56f
9:50 7ft 13s 6s 25 31 mph 1018.4mb 57f 57f
8:50 7.5ft 12s 6s 25 29 mph 1017.8mb 57f 56f
7:50 8ft 14s 6s 25 31 mph 1017.4mb 57f 56f
6:50 8ft 14s 7s 25 34 mph 1017.4mb 57f 56f
5:50 8ft 14s 7s 27 31 mph 1017.4mb 57f 57f
4:50 8.5ft 11s 7s 25 29 mph 1017.9mb 57f 57f
3:50 8ft 14s 6s 25 29 mph 1018.4mb 57f 56f
2:50 8ft 11s 6s 25 29 mph 1018.9mb 57f 56f
1:50 8.5ft 14s 6s 25 29 mph 1019.2mb 57f 56f
12:50 8ft 14s 7s 25 29 mph 1019.4mb 57f 56f
11:50 7.5ft 13s 6s 25 29 mph 1019.2mb 57f 56f
10:50 8.5ft 13s 7s 25 29 mph 1018.8mb 56f 56f
9:50 8ft 14s 7s 25 31 mph 1018.2mb 56f 56f
8:50 7.5ft 13s 6s 25 29 mph 1017.5mb 56f 56f
7:50 8ft 14s 7s 22 27 mph 1017mb 56f 56f
6:50 9ft 14s 7s 25 29 mph 1016.7mb 56f 55f
5:50 9ft 14s 7s 25 31 mph 1016.2mb 56f 55f
4:50 8ft 14s 6s 27 31 mph 1016.2mb 57f 55f
3:50 8ft 15s 7s 27 31 mph 1016.2mb 57f 56f
2:50 8ft 15s 6s 27 34 mph 1016.4mb 57f 56f
1:50 8.5ft 15s 6s 27 34 mph 1016.8mb 56f 56f
12:50 9ft 14s 7s 25 31 mph 1017.1mb 57f 56f
Sáb 03/25 11:50 8ft 6s 6s 27 34 mph 1017mb 57f 56f
10:50 9ft 16s 6s 25 31 mph 1017.7mb 57f 56f
9:50 9ft 16s 6s 25 29 mph 1018.3mb 57f 56f
8:50 8.5ft 16s 6s 27 31 mph 1017.5mb 57f 56f
7:50 8ft 10s 6s 27 34 mph 1017.4mb 57f 56f
6:50 7.5ft 16s 6s 25 29 mph 1017.5mb 57f 57f
5:50 7.5ft 16s 6s 25 31 mph 1017.7mb 57f 57f
4:50 7ft 11s 6s 25 29 mph 1017.9mb 57f 57f
3:50 6.5ft 17s 6s 25 29 mph 1018.3mb 57f 56f
2:50 6ft 14s 6s 22 27 mph 1018.8mb 57f 57f
1:50 7ft 10s 7s 20 25 mph 1019.7mb 57f 57f
12:50 6ft 13s 6s 16 20 mph 1020.3mb 57f 57f
11:50 6ft 10s 6s 18 20 mph 1020.3mb 57f 56f
10:50 7ft 10s 7s 16 20 mph 1020mb 57f 56f
9:50 7ft 13s 7s 18 22 mph 1019.8mb 57f 57f
8:50 6.5ft 9s 8s 20 25 mph 1019.7mb 57f 56f
7:50 7ft 11s 8s 11 13 mph 1019.5mb 57f 57f
6:50 7ft 11s 8s 9
mph
1019.5mb 57f 57f
5:50 7ft 11s 9s 4 7 mph 1019.5mb 57f 57f
4:50 7ft 11s 9s 4 7 mph 1019.9mb 57f 57f
3:50 7ft 11s 8s 9 11 mph 1020.4mb 57f 57f
2:50 7ft 11s 9s 11 13 mph 1021.1mb 57f 57f
1:50 7ft 11s 9s 11 13 mph 1021.3mb 57f 57f
12:50 6ft 11s 8s 11 13 mph 1021.5mb 57f 57f
Sex 03/24 11:50 5ft 15s 8s 13 18 mph 1021.6mb 57f 57f
10:50 6ft 14s 9s 9 11 mph 1021.7mb 57f 57f
9:50 5ft 15s 8s 9 11 mph 1022.1mb 57f 57f
8:50 5ft 15s 9s 11 13 mph 1022.6mb 57f 57f
7:50 5ft 14s 8s 13 16 mph 1022.8mb 57f 57f
6:50 5ft 15s 8s 13 16 mph 1022.6mb 57f 57f
5:50 5ft 14s 8s 13 16 mph 1022.6mb 57f 57f
4:50 5ft 14s 7s 13 16 mph 1023.1mb 57f 57f
3:50 4.5ft 16s 7s 13 16 mph 1023.6mb 57f 57f
2:50 5ft 14s 8s 13 16 mph 1024.2mb 57f 56f
1:50 5ft 15s 7s 13 16 mph 1025.2mb 57f 56f
12:50 5ft 15s 7s 13 18 mph 1025.2mb 57f 56f
11:50 5.5ft 15s 8s 13 16 mph 1025.3mb 57f 56f
10:50 6ft 14s 8s 11 13 mph 1025mb 57f 55f
9:50 6.5ft 9s 7s 11
mph
1024.8mb 56f 55f
8:50 6ft 14s 7s 13 16 mph 1024.2mb 56f 55f
7:50 6ft 15s 7s 13 16 mph 1024.1mb 56f 55f
6:50 6ft 14s 7s 18 20 mph 1023.4mb 56f 55f
5:50 6ft 15s 7s 16 18 mph 1023.2mb 56f 55f
4:50 7ft 16s 7s 16 20 mph 1023.3mb 56f 55f
3:50 7ft 16s 7s 18 22 mph 1023.1mb 57f 55f
2:50 8.5ft 16s 7s 22 27 mph 1023.1mb 57f 55f
1:50 8ft 14s 7s 25 29 mph 1022.8mb 57f 55f
12:50 8ft 15s 7s 25 29 mph 1022.9mb 57f 55f